createdAt,value
2023-04-06T00:01:14.312Z,101696.56
2023-04-06T00:03:38.408Z,101696.66
2023-04-06T00:06:02.275Z,101695.09
2023-04-06T00:08:26.607Z,101691.09
2023-04-06T00:10:50.438Z,101693.19
2023-04-06T00:13:16.255Z,101690.72
2023-04-06T00:15:40.127Z,101691.97
2023-04-06T00:18:04.902Z,101682.78
2023-04-06T00:20:28.865Z,101682.13
2023-04-06T00:22:52.748Z,101683.19
2023-04-06T00:25:17.443Z,101684.84
2023-04-06T00:27:41.384Z,101684.13
2023-04-06T00:30:08.507Z,101680.19
2023-04-06T00:32:32.354Z,101675.72
2023-04-06T00:34:56.192Z,101685.47
2023-04-06T00:37:20.411Z,101683.63
2023-04-06T00:39:44.800Z,101673.09
2023-04-06T00:42:14.635Z,101683.06
2023-04-06T00:44:38.459Z,101676.94
2023-04-06T00:47:03.831Z,101682.00
2023-04-06T00:49:27.652Z,101678.06
2023-04-06T00:51:51.479Z,101678.13
2023-04-06T00:54:15.709Z,101681.22
2023-04-06T00:56:40.599Z,101677.50
2023-04-06T00:59:05.274Z,101673.19
2023-04-06T01:01:29.885Z,101684.75
2023-04-06T01:03:59.037Z,101677.47
2023-04-06T01:06:23.014Z,101673.56
2023-04-06T01:08:55.734Z,101678.63
2023-04-06T01:11:22.329Z,101679.00
2023-04-06T01:13:48.033Z,101674.00
2023-04-06T01:16:37.938Z,101670.78
2023-04-06T01:19:25.313Z,101667.25
2023-04-06T01:21:51.605Z,101670.22
2023-04-06T01:24:37.150Z,101671.19
2023-04-06T01:27:11.674Z,101670.56
2023-04-06T01:30:01.752Z,101667.59
2023-04-06T01:32:45.936Z,101670.16
2023-04-06T01:35:12.454Z,101669.56
2023-04-06T01:37:42.938Z,101669.81
2023-04-06T01:40:14.819Z,101671.56
2023-04-06T01:42:46.284Z,101674.44
2023-04-06T01:45:15.801Z,101672.13
2023-04-06T01:47:39.919Z,101671.31
2023-04-06T01:50:06.411Z,101675.06
2023-04-06T01:52:34.961Z,101672.59
2023-04-06T01:54:58.733Z,101668.19
2023-04-06T01:57:56.050Z,101665.03
2023-04-06T02:00:30.129Z,101672.25
2023-04-06T02:02:54.274Z,101658.22
2023-04-06T02:05:22.636Z,101665.44
2023-04-06T02:07:48.605Z,101665.75
2023-04-06T02:10:17.713Z,101665.22
2023-04-06T02:12:42.183Z,101663.44
2023-04-06T02:15:14.293Z,101662.31
2023-04-06T02:17:38.278Z,101663.31
2023-04-06T02:20:02.031Z,101670.34
2023-04-06T02:22:26.803Z,101662.47
2023-04-06T02:24:50.746Z,101663.38
2023-04-06T02:27:14.681Z,101665.28
2023-04-06T02:29:38.436Z,101669.94
2023-04-06T02:32:03.843Z,101661.16
2023-04-06T02:34:30.869Z,101664.75
2023-04-06T02:36:54.730Z,101662.22
2023-04-06T02:39:18.629Z,101661.47
2023-04-06T02:41:42.536Z,101663.31
2023-04-06T02:44:09.531Z,101664.94
2023-04-06T02:46:39.808Z,101663.63
2023-04-06T02:49:05.927Z,101663.91
2023-04-06T02:51:31.878Z,101664.97
2023-04-06T02:54:05.998Z,101658.81
2023-04-06T02:56:30.120Z,101661.53
2023-04-06T02:58:54.045Z,101666.97
2023-04-06T03:01:21.991Z,101662.78
2023-04-06T03:03:51.628Z,101665.63
2023-04-06T03:06:22.609Z,101672.19
2023-04-06T03:08:50.704Z,101671.38
2023-04-06T03:11:14.498Z,101674.50
2023-04-06T03:13:40.543Z,101670.13
2023-04-06T03:16:05.237Z,101671.00
2023-04-06T03:18:29.305Z,101677.28
2023-04-06T03:20:56.028Z,101674.66
2023-04-06T03:23:26.285Z,101671.88
2023-04-06T03:25:55.012Z,101674.66
2023-04-06T03:28:19.029Z,101673.88
2023-04-06T03:30:57.837Z,101681.97
2023-04-06T03:33:37.449Z,101681.13
2023-04-06T03:36:01.488Z,101680.31
2023-04-06T03:38:27.785Z,101677.84
2023-04-06T03:40:52.478Z,101685.97
2023-04-06T03:43:20.816Z,101685.00
2023-04-06T03:45:44.623Z,101687.72
2023-04-06T03:48:09.145Z,101687.78
2023-04-06T03:50:35.402Z,101688.88
2023-04-06T03:52:59.326Z,101694.41
2023-04-06T03:55:24.832Z,101697.94
2023-04-06T03:57:48.576Z,101700.53
2023-04-06T04:00:14.514Z,101701.38
2023-04-06T04:02:38.444Z,101714.72
2023-04-06T04:05:02.437Z,101718.31
2023-04-06T04:07:26.296Z,101708.81
2023-04-06T04:09:50.236Z,101711.44
2023-04-06T04:12:17.777Z,101712.38
2023-04-06T04:14:41.680Z,101714.09
2023-04-06T04:17:05.433Z,101718.72
2023-04-06T04:19:29.290Z,101718.78
2023-04-06T04:21:54.302Z,101717.88
2023-04-06T04:24:26.140Z,101717.94
2023-04-06T04:26:50.062Z,101714.44
2023-04-06T04:29:15.463Z,101708.28
2023-04-06T04:31:39.492Z,101716.34
2023-04-06T04:34:10.928Z,101715.56
2023-04-06T04:36:36.022Z,101722.66
2023-04-06T04:39:03.519Z,101719.97
2023-04-06T04:41:32.496Z,101720.91
2023-04-06T04:43:57.044Z,101720.97
2023-04-06T04:46:24.281Z,101722.72
2023-04-06T04:48:49.461Z,101715.47
2023-04-06T04:51:13.423Z,101716.53
2023-04-06T04:53:51.342Z,101719.09
2023-04-06T04:56:20.120Z,101716.47
2023-04-06T04:58:46.944Z,101728.09
2023-04-06T05:01:11.558Z,101727.22
2023-04-06T05:03:39.964Z,101732.56
2023-04-06T05:06:09.405Z,101735.13
2023-04-06T05:08:36.618Z,101728.97
2023-04-06T05:11:01.232Z,101732.34
2023-04-06T05:13:28.185Z,101736.56
2023-04-06T05:15:53.207Z,101734.66
2023-04-06T05:18:23.669Z,101737.25
2023-04-06T05:20:49.604Z,101735.34
2023-04-06T05:23:14.106Z,101736.06
2023-04-06T05:25:38.009Z,101742.16
2023-04-06T05:28:11.636Z,101735.84
2023-04-06T05:30:36.663Z,101741.06
2023-04-06T05:33:01.721Z,101739.16
2023-04-06T05:35:33.010Z,101741.63
2023-04-06T05:38:05.903Z,101745.78
2023-04-06T05:40:29.838Z,101745.66
2023-04-06T05:42:53.902Z,101737.59
2023-04-06T05:45:19.536Z,101745.25
2023-04-06T05:47:48.815Z,101747.75
2023-04-06T05:50:19.959Z,101748.59
2023-04-06T05:52:46.234Z,101745.84
2023-04-06T05:55:14.301Z,101747.44
2023-04-06T05:57:41.237Z,101746.09
2023-04-06T06:00:07.624Z,101740.72
2023-04-06T06:02:43.975Z,101744.59
2023-04-06T06:05:14.167Z,101746.53
2023-04-06T06:07:39.540Z,101750.78
2023-04-06T06:10:03.344Z,101746.44
2023-04-06T06:12:31.931Z,101747.06
2023-04-06T06:14:57.500Z,101744.13
2023-04-06T06:17:23.569Z,101736.09
2023-04-06T06:19:47.954Z,101729.78
2023-04-06T06:22:12.781Z,101731.69
2023-04-06T06:24:39.794Z,101736.91
2023-04-06T06:27:03.591Z,101734.28
2023-04-06T06:29:31.630Z,101734.31
2023-04-06T06:31:57.142Z,101731.75
2023-04-06T06:34:21.833Z,101740.38
2023-04-06T06:36:48.070Z,101729.72
2023-04-06T06:39:13.757Z,101725.69
2023-04-06T06:41:37.677Z,101735.56
2023-04-06T06:44:02.549Z,101738.44
2023-04-06T06:46:28.028Z,101737.94
2023-04-06T06:48:52.069Z,101735.19
2023-04-06T06:51:15.888Z,101734.88
2023-04-06T06:53:39.796Z,101739.28
2023-04-06T06:56:03.744Z,101732.50
2023-04-06T06:58:28.105Z,101732.28
2023-04-06T07:00:52.136Z,101725.91
2023-04-06T07:03:18.315Z,101726.72
2023-04-06T07:05:51.082Z,101729.09
2023-04-06T07:08:15.028Z,101732.19
2023-04-06T07:10:39.165Z,101731.63
2023-04-06T07:13:03.101Z,101723.44
2023-04-06T07:15:27.129Z,101740.00
2023-04-06T07:17:51.232Z,101731.09
2023-04-06T07:20:17.360Z,101736.69
2023-04-06T07:22:41.307Z,101738.22
2023-04-06T07:25:05.593Z,101732.75
2023-04-06T07:27:29.408Z,101729.66
2023-04-06T07:29:53.335Z,101730.88
2023-04-06T07:32:17.690Z,101736.34
2023-04-06T07:34:41.436Z,101738.81
2023-04-06T07:37:06.983Z,101730.59
2023-04-06T07:39:31.659Z,101734.56
2023-04-06T07:41:55.745Z,101734.66
2023-04-06T07:44:19.567Z,101728.97
2023-04-06T07:46:44.627Z,101734.56
2023-04-06T07:49:08.437Z,101727.94
2023-04-06T07:51:33.182Z,101730.38
2023-04-06T07:53:58.467Z,101730.91
2023-04-06T07:56:22.558Z,101729.41
2023-04-06T07:58:46.627Z,101726.09
2023-04-06T08:01:10.571Z,101728.63
2023-04-06T08:03:36.766Z,101734.91
2023-04-06T08:06:00.654Z,101729.97
2023-04-06T08:08:24.467Z,101720.03
2023-04-06T08:10:50.077Z,101722.72
2023-04-06T08:13:13.835Z,101725.84
2023-04-06T08:15:37.776Z,101721.94
2023-04-06T08:18:01.911Z,101728.28
2023-04-06T08:20:25.905Z,101726.25
2023-04-06T08:22:51.653Z,101732.94
2023-04-06T08:25:17.539Z,101734.03
2023-04-06T08:27:42.760Z,101726.47
2023-04-06T08:30:07.781Z,101729.03
2023-04-06T08:32:31.717Z,101734.56
2023-04-06T08:34:56.642Z,101731.19
2023-04-06T08:37:20.477Z,101740.44
2023-04-06T08:39:44.241Z,101734.44
2023-04-06T08:42:15.618Z,101749.19
2023-04-06T08:44:42.196Z,101731.19
2023-04-06T08:47:08.245Z,101732.19
2023-04-06T08:49:32.101Z,101745.72
2023-04-06T08:51:58.426Z,101743.72
2023-04-06T08:54:22.322Z,101735.09
2023-04-06T08:56:46.335Z,101735.34
2023-04-06T08:59:11.886Z,101733.16
2023-04-06T09:01:43.416Z,101727.91
2023-04-06T09:04:12.644Z,101721.28
2023-04-06T09:06:37.949Z,101725.94
2023-04-06T09:09:01.764Z,101729.38
2023-04-06T09:11:25.693Z,101735.09
2023-04-06T09:13:51.315Z,101720.72
2023-04-06T09:16:15.191Z,101723.31
2023-04-06T09:18:41.171Z,101725.78
2023-04-06T09:21:06.791Z,101725.81
2023-04-06T09:23:30.645Z,101724.44
2023-04-06T09:25:54.441Z,101718.91
2023-04-06T09:28:18.235Z,101718.66
2023-04-06T09:30:51.476Z,101716.53
2023-04-06T09:33:15.301Z,101718.03
2023-04-06T09:35:40.549Z,101706.13
2023-04-06T09:38:13.717Z,101703.22
2023-04-06T09:40:41.464Z,101705.09
2023-04-06T09:43:09.412Z,101709.34
2023-04-06T09:45:33.443Z,101696.09
2023-04-06T09:47:58.098Z,101695.94
2023-04-06T09:50:22.971Z,101693.41
2023-04-06T09:52:52.607Z,101696.69
2023-04-06T09:55:23.821Z,101704.03
2023-04-06T09:57:55.479Z,101687.94
2023-04-06T10:00:24.476Z,101688.72
2023-04-06T10:02:55.669Z,101684.94
2023-04-06T10:05:29.408Z,101691.00
2023-04-06T10:08:01.136Z,101683.75
2023-04-06T10:10:25.357Z,101686.22
2023-04-06T10:12:51.078Z,101679.00
2023-04-06T10:15:14.953Z,101671.91
2023-04-06T10:17:38.775Z,101689.31
2023-04-06T10:20:10.931Z,101692.22
2023-04-06T10:22:45.985Z,101679.25
2023-04-06T10:25:12.477Z,101685.34
2023-04-06T10:27:36.267Z,101687.44
2023-04-06T10:30:05.289Z,101682.06
2023-04-06T10:32:39.041Z,101665.84
2023-04-06T10:35:10.161Z,101668.53
2023-04-06T10:37:51.517Z,101670.63
2023-04-06T10:40:24.728Z,101684.38
2023-04-06T10:42:48.821Z,101679.78
2023-04-06T10:45:22.800Z,101680.78
2023-04-06T10:47:46.643Z,101673.41
2023-04-06T10:50:11.730Z,101671.78
2023-04-06T10:52:35.642Z,101681.75
2023-04-06T10:54:59.677Z,101671.09
2023-04-06T10:57:33.847Z,101673.03
2023-04-06T10:59:57.782Z,101666.38
2023-04-06T11:02:25.513Z,101655.06
2023-04-06T11:04:59.056Z,101662.88
2023-04-06T11:07:28.106Z,101659.19
2023-04-06T11:10:11.241Z,101663.53
2023-04-06T11:12:38.809Z,101655.66
2023-04-06T11:15:05.755Z,101649.00
2023-04-06T11:17:30.439Z,101658.63
2023-04-06T11:19:54.487Z,101650.97
2023-04-06T11:22:18.426Z,101654.50
2023-04-06T11:24:42.284Z,101647.25
2023-04-06T11:27:06.295Z,101640.41
2023-04-06T11:29:33.104Z,101636.41
2023-04-06T11:32:01.808Z,101639.44
2023-04-06T11:34:27.921Z,101634.31
2023-04-06T11:36:57.833Z,101639.66
2023-04-06T11:39:24.223Z,101635.13
2023-04-06T11:41:51.025Z,101645.69
2023-04-06T11:44:14.876Z,101631.06
2023-04-06T11:46:40.144Z,101628.47
2023-04-06T11:49:05.163Z,101624.28
2023-04-06T11:51:29.457Z,101626.81
2023-04-06T11:53:53.297Z,101629.09
2023-04-06T11:56:30.136Z,101618.88
2023-04-06T11:58:54.362Z,101618.94
2023-04-06T12:01:18.142Z,101616.31
2023-04-06T12:03:43.594Z,101619.38
2023-04-06T12:06:08.168Z,101623.19
2023-04-06T12:08:31.961Z,101619.00
2023-04-06T12:10:55.730Z,101616.06
2023-04-06T12:13:19.533Z,101611.78
2023-04-06T12:15:43.361Z,101617.00
2023-04-06T12:18:07.306Z,101612.78
2023-04-06T12:20:32.651Z,101607.03
2023-04-06T12:22:56.500Z,101613.94
2023-04-06T12:25:20.694Z,101615.88
2023-04-06T12:27:44.508Z,101608.63
2023-04-06T12:30:10.451Z,101603.47
2023-04-06T12:32:34.314Z,101607.69
2023-04-06T12:34:58.089Z,101602.28
2023-04-06T12:37:23.449Z,101596.03
2023-04-06T12:39:47.217Z,101597.53
2023-04-06T12:42:11.404Z,101591.31
2023-04-06T12:44:35.294Z,101594.28
2023-04-06T12:46:59.148Z,101589.56
2023-04-06T12:49:23.009Z,101593.88
2023-04-06T12:51:46.876Z,101588.66
2023-04-06T12:54:12.974Z,101584.84
2023-04-06T12:56:37.503Z,101582.69
2023-04-06T12:59:01.598Z,101579.72
2023-04-06T13:01:26.479Z,101578.84
2023-04-06T13:03:50.729Z,101578.47
2023-04-06T13:06:15.779Z,101574.84
2023-04-06T13:08:40.458Z,101576.59
2023-04-06T13:11:06.520Z,101572.06
2023-04-06T13:13:31.954Z,101570.97
2023-04-06T13:16:02.174Z,101573.50
2023-04-06T13:18:26.049Z,101567.75
2023-04-06T13:20:50.226Z,101566.97
2023-04-06T13:23:14.111Z,101562.16
2023-04-06T13:25:38.035Z,101567.25
2023-04-06T13:28:03.413Z,101560.44
2023-04-06T13:30:27.892Z,101553.94
2023-04-06T13:32:51.886Z,101555.44
2023-04-06T13:35:15.966Z,101547.94
2023-04-06T13:37:39.862Z,101559.34
2023-04-06T13:40:05.727Z,101548.38
2023-04-06T13:42:30.542Z,101546.28
2023-04-06T13:44:55.731Z,101544.78
2023-04-06T13:47:19.771Z,101552.81
2023-04-06T13:49:43.556Z,101542.72
2023-04-06T13:52:07.479Z,101537.41
2023-04-06T13:54:31.245Z,101543.13
2023-04-06T13:56:54.909Z,101549.09
2023-04-06T13:59:18.897Z,101544.44
2023-04-06T14:01:44.123Z,101537.78
2023-04-06T14:04:07.983Z,101529.81
2023-04-06T14:06:32.290Z,101531.75
2023-04-06T14:08:56.056Z,101529.50
2023-04-06T14:11:19.865Z,101527.19
2023-04-06T14:13:44.047Z,101532.97
2023-04-06T14:16:08.419Z,101539.84
2023-04-06T14:18:35.179Z,101538.31
2023-04-06T14:20:59.869Z,101540.25
2023-04-06T14:23:23.578Z,101531.19
2023-04-06T14:25:47.302Z,101530.97
2023-04-06T14:28:10.962Z,101543.13
2023-04-06T14:30:34.796Z,101539.88
2023-04-06T14:33:00.288Z,101532.22
2023-04-06T14:35:26.398Z,101533.66
2023-04-06T14:37:50.029Z,101540.84
2023-04-06T14:40:14.421Z,101533.66
2023-04-06T14:42:38.871Z,101532.88
2023-04-06T14:45:02.526Z,101534.34
2023-04-06T14:47:26.672Z,101527.03
2023-04-06T14:49:53.652Z,101534.63
2023-04-06T14:52:18.865Z,101520.75
2023-04-06T14:54:42.593Z,101523.06
2023-04-06T14:57:06.294Z,101521.09
2023-04-06T14:59:30.039Z,101523.25
2023-04-06T15:01:54.068Z,101520.03
2023-04-06T15:04:17.983Z,101517.44
2023-04-06T15:06:41.965Z,101520.97
2023-04-06T15:09:07.230Z,101522.78
2023-04-06T15:11:31.186Z,101516.34
2023-04-06T15:13:54.914Z,101516.50
2023-04-06T15:16:18.608Z,101515.22
2023-04-06T15:18:42.299Z,101528.25
2023-04-06T15:21:06.158Z,101514.34
2023-04-06T15:23:31.323Z,101520.22
2023-04-06T15:25:56.644Z,101516.81
2023-04-06T15:28:20.580Z,101509.00
2023-04-06T15:30:44.937Z,101522.34
2023-04-06T15:33:10.884Z,101524.69
2023-04-06T15:35:40.207Z,101518.03
2023-04-06T15:38:05.144Z,101507.84
2023-04-06T15:40:28.858Z,101519.66
2023-04-06T15:42:54.115Z,101508.47
2023-04-06T15:45:19.045Z,101516.44
2023-04-06T15:47:44.867Z,101516.09
2023-04-06T15:50:09.905Z,101509.28
2023-04-06T15:52:33.713Z,101509.97
2023-04-06T15:54:57.468Z,101515.69
2023-04-06T15:57:21.196Z,101509.50
2023-04-06T15:59:46.373Z,101512.22
2023-04-06T16:02:10.217Z,101513.38
2023-04-06T16:04:34.150Z,101516.94
2023-04-06T16:06:57.869Z,101521.16
2023-04-06T16:09:21.879Z,101519.66
2023-04-06T16:11:45.533Z,101523.03
2023-04-06T16:14:10.046Z,101526.44
2023-04-06T16:16:35.218Z,101521.91
2023-04-06T16:18:58.969Z,101523.78
2023-04-06T16:21:22.677Z,101529.28
2023-04-06T16:23:47.918Z,101520.34
2023-04-06T16:26:14.310Z,101525.72
2023-04-06T16:28:37.970Z,101523.31
2023-04-06T16:31:01.629Z,101528.84
2023-04-06T16:33:26.806Z,101534.72
2023-04-06T16:35:50.504Z,101526.66
2023-04-06T16:38:14.354Z,101531.03
2023-04-06T16:40:38.098Z,101531.47
2023-04-06T16:43:01.795Z,101530.84
2023-04-06T16:45:25.826Z,101534.19
2023-04-06T16:47:50.629Z,101527.00
2023-04-06T16:50:16.266Z,101526.91
2023-04-06T16:52:39.977Z,101527.63
2023-04-06T16:55:03.688Z,101520.34
2023-04-06T16:57:29.754Z,101531.41
2023-04-06T16:59:53.407Z,101530.00
2023-04-06T17:02:17.268Z,101529.16
2023-04-06T17:04:41.033Z,101522.19
2023-04-06T17:07:06.179Z,101524.88
2023-04-06T17:11:55.276Z,101533.19
2023-04-06T17:14:19.128Z,101531.00
2023-04-06T17:16:42.947Z,101530.13
2023-04-06T17:19:06.619Z,101536.50
2023-04-06T17:21:31.001Z,101534.97
2023-04-06T17:23:56.439Z,101531.34
2023-04-06T17:26:21.644Z,101530.25
2023-04-06T17:28:45.664Z,101533.03
2023-04-06T17:31:11.257Z,101529.59
2023-04-06T17:33:35.426Z,101541.66
2023-04-06T17:35:59.179Z,101545.28
2023-04-06T17:38:23.997Z,101544.91
2023-04-06T17:40:49.748Z,101550.22
2023-04-06T17:43:13.466Z,101553.53
2023-04-06T17:45:37.250Z,101549.34
2023-04-06T17:48:01.035Z,101552.16
2023-04-06T17:50:24.980Z,101560.34
2023-04-06T17:52:49.962Z,101563.44
2023-04-06T17:55:14.668Z,101556.81
2023-04-06T17:57:41.998Z,101563.81
2023-04-06T18:00:08.440Z,101562.66
2023-04-06T18:02:32.491Z,101554.78
2023-04-06T18:04:56.481Z,101566.53
2023-04-06T18:07:20.284Z,101571.34
2023-04-06T18:09:43.989Z,101575.69
2023-04-06T18:12:08.158Z,101568.22
2023-04-06T18:14:33.242Z,101579.41
2023-04-06T18:16:56.900Z,101579.72
2023-04-06T18:19:20.586Z,101579.03
2023-04-06T18:21:44.274Z,101589.00
2023-04-06T18:24:12.364Z,101587.66
2023-04-06T18:26:38.965Z,101588.72
2023-04-06T18:29:02.835Z,101581.34
2023-04-06T18:31:28.187Z,101588.91
2023-04-06T18:33:53.825Z,101590.13
2023-04-06T18:36:18.290Z,101582.19
2023-04-06T18:38:46.247Z,101592.81
2023-04-06T18:41:10.040Z,101587.81
2023-04-06T18:43:33.724Z,101595.13
2023-04-06T18:45:57.900Z,101593.06
2023-04-06T18:48:23.055Z,101597.06
2023-04-06T18:50:54.267Z,101598.78
2023-04-06T18:53:18.050Z,101606.09
2023-04-06T18:55:41.673Z,101605.47
2023-04-06T18:58:05.438Z,101606.13
2023-04-06T19:00:29.220Z,101603.75
2023-04-06T19:02:53.054Z,101604.34
2023-04-06T19:05:18.623Z,101605.63
2023-04-06T19:07:43.180Z,101608.91
2023-04-06T19:10:09.947Z,101608.06
2023-04-06T19:12:36.325Z,101614.69
2023-04-06T19:15:01.279Z,101610.38
2023-04-06T19:17:25.133Z,101609.56
2023-04-06T19:19:48.966Z,101611.13
2023-04-06T19:22:15.220Z,101616.31
2023-04-06T19:24:39.130Z,101617.28
2023-04-06T19:27:02.820Z,101616.66
2023-04-06T19:29:26.513Z,101612.59
2023-04-06T19:31:50.330Z,101611.78
2023-04-06T19:34:17.770Z,101609.78
2023-04-06T19:36:41.478Z,101614.34
2023-04-06T19:39:06.656Z,101614.94
2023-04-06T19:41:30.408Z,101611.78
2023-04-06T19:43:54.409Z,101612.38
2023-04-06T19:46:18.284Z,101609.59
2023-04-06T19:48:42.262Z,101608.41
2023-04-06T19:51:07.045Z,101607.72
2023-04-06T19:53:30.858Z,101605.03
2023-04-06T19:55:56.088Z,101612.78
2023-04-06T19:58:21.592Z,101604.16
2023-04-06T20:00:45.370Z,101603.63
2023-04-06T20:03:09.243Z,101610.66
2023-04-06T20:05:33.212Z,101613.50
2023-04-06T20:07:56.884Z,101614.94
2023-04-06T20:10:20.891Z,101612.25
2023-04-06T20:12:47.236Z,101610.63
2023-04-06T20:15:11.554Z,101620.34
2023-04-06T20:17:35.299Z,101617.25
2023-04-06T20:19:59.010Z,101614.94
2023-04-06T20:22:22.815Z,101614.47
2023-04-06T20:24:46.545Z,101620.84
2023-04-06T20:27:10.309Z,101620.22
2023-04-06T20:29:35.554Z,101614.63
2023-04-06T20:32:01.403Z,101616.75
2023-04-06T20:34:28.919Z,101618.94
2023-04-06T20:36:52.547Z,101613.97
2023-04-06T20:39:16.294Z,101610.84
2023-04-06T20:41:39.958Z,101617.41
2023-04-06T20:44:03.699Z,101608.91
2023-04-06T20:46:28.947Z,101623.41
2023-04-06T20:48:53.808Z,101617.34
2023-04-06T20:51:23.233Z,101613.91
2023-04-06T20:53:47.235Z,101616.13
2023-04-06T20:56:10.908Z,101616.31
2023-04-06T20:58:34.626Z,101607.94
2023-04-06T21:00:58.220Z,101612.41
2023-04-06T21:03:23.448Z,101619.06
2023-04-06T21:05:52.898Z,101614.88
2023-04-06T21:08:16.739Z,101619.97
2023-04-06T21:10:40.556Z,101616.38
2023-04-06T21:13:04.282Z,101619.66
2023-04-06T21:15:28.621Z,101611.88
2023-04-06T21:17:52.430Z,101613.09
2023-04-06T21:20:17.744Z,101608.41
2023-04-06T21:22:41.513Z,101614.75
2023-04-06T21:25:05.630Z,101606.81
2023-04-06T21:27:29.428Z,101606.91
2023-04-06T21:29:53.177Z,101613.22
2023-04-06T21:32:17.045Z,101610.63
2023-04-06T21:34:42.884Z,101606.59
2023-04-06T21:37:08.101Z,101608.72
2023-04-06T21:39:31.811Z,101611.56
2023-04-06T21:41:56.402Z,101606.38
2023-04-06T21:44:20.303Z,101605.78
2023-04-06T21:46:44.436Z,101613.09
2023-04-06T21:49:08.158Z,101609.50
2023-04-06T21:51:32.521Z,101607.19
2023-04-06T21:53:57.764Z,101605.56
2023-04-06T21:56:22.544Z,101611.03
2023-04-06T21:58:46.511Z,101602.53
2023-04-06T22:01:11.974Z,101601.78
2023-04-06T22:03:35.853Z,101604.72
2023-04-06T22:05:59.711Z,101608.47
2023-04-06T22:08:33.750Z,101609.41
2023-04-06T22:10:59.760Z,101606.09
2023-04-06T22:13:23.544Z,101604.63
2023-04-06T22:15:47.304Z,101603.97
2023-04-06T22:18:10.979Z,101603.97
2023-04-06T22:20:34.874Z,101598.84
2023-04-06T22:22:58.780Z,101602.56
2023-04-06T22:25:22.442Z,101599.19
2023-04-06T22:27:47.545Z,101597.38
2023-04-06T22:30:12.688Z,101597.56
2023-04-06T22:32:36.425Z,101600.34
2023-04-06T22:35:00.270Z,101605.97
2023-04-06T22:37:23.862Z,101603.22
2023-04-06T22:39:47.630Z,101607.06
2023-04-06T22:42:11.290Z,101596.56
2023-04-06T22:44:36.417Z,101600.25
2023-04-06T22:47:00.211Z,101595.94
2023-04-06T22:49:24.021Z,101597.00
2023-04-06T22:51:47.718Z,101598.03
2023-04-06T22:54:12.519Z,101592.94
2023-04-06T22:56:36.259Z,101593.03
2023-04-06T22:58:59.953Z,101592.28
2023-04-06T23:01:25.009Z,101593.13
2023-04-06T23:03:48.974Z,101590.84
2023-04-06T23:06:12.663Z,101590.84
2023-04-06T23:08:36.391Z,101597.13
2023-04-06T23:11:00.010Z,101601.69
2023-04-06T23:13:23.753Z,101599.19
2023-04-06T23:15:47.362Z,101599.19
2023-04-06T23:18:12.560Z,101590.44
2023-04-06T23:20:36.521Z,101596.75
2023-04-06T23:23:00.189Z,101597.88
2023-04-06T23:25:24.060Z,101597.88
2023-04-06T23:27:47.765Z,101593.59
2023-04-06T23:30:12.083Z,101592.75
2023-04-06T23:32:35.947Z,101588.38
2023-04-06T23:35:01.322Z,101585.88
2023-04-06T23:37:24.999Z,101588.63
2023-04-06T23:39:49.300Z,101587.69
2023-04-06T23:42:12.999Z,101592.19
2023-04-06T23:44:36.618Z,101584.38
2023-04-06T23:47:00.555Z,101584.44
2023-04-06T23:49:24.239Z,101601.28
2023-04-06T23:51:49.426Z,101583.69
2023-04-06T23:54:13.101Z,101585.59
2023-04-06T23:56:36.942Z,101584.78
2023-04-06T23:59:00.612Z,101587.50
